Time;durP1;ratioP1;P1;durP2;ratioP2;P2;SDS_P1;SDS_P2;PMS_P1;PMS_P2;Temp;Humidity;BMP_temperature;BMP_pressure;BME280_temperature;BME280_humidity;BME280_pressure;Samples;Min_cycle;Max_cycle;Signal;HPM_P1;HPM_P2
2021/12/25 00:01:16;;;;;;;23.00;11.85;;;;;;;4.84;99.40;100442.91;4993303;28;20031;-55
2021/12/25 00:03:41;;;;;;;22.55;11.70;;;;;;;4.82;99.31;100447.81;4992246;28;20034;-57
2021/12/25 00:06:07;;;;;;;22.40;11.65;;;;;;;4.84;99.16;100445.63;4992829;28;20065;-57
2021/12/25 00:08:32;;;;;;;22.33;11.32;;;;;;;4.84;99.17;100442.91;4993117;28;20085;-58
2021/12/25 00:10:59;;;;;;;22.42;10.88;;;;;;;4.82;98.78;100450.56;4993033;28;20110;-57
2021/12/25 00:13:25;;;;;;;23.10;11.68;;;;;;;4.79;98.76;100447.56;4993097;28;20429;-58
2021/12/25 00:15:51;;;;;;;23.48;11.55;;;;;;;4.75;98.83;100447.31;4993243;28;20026;-57
2021/12/25 00:18:18;;;;;;;22.55;11.63;;;;;;;4.72;98.71;100447.88;4992309;28;20034;-58
2021/12/25 00:20:43;;;;;;;22.92;11.40;;;;;;;4.67;98.78;100448.69;4993847;28;20117;-58
2021/12/25 00:23:09;;;;;;;22.85;11.48;;;;;;;4.67;99.37;100454.19;4993127;28;20113;-58
2021/12/25 00:25:39;;;;;;;23.85;12.13;;;;;;;4.65;99.43;100452.78;4993170;28;20065;-58
2021/12/25 00:31:10;;;;;;;23.20;12.13;;;;;;;4.65;99.67;100441.84;4995877;28;20080;-58
2021/12/25 00:36:11;;;;;;;23.52;12.50;;;;;;;4.65;99.23;100439.09;4996743;28;20042;-58
2021/12/25 00:38:37;;;;;;;22.48;11.90;;;;;;;4.60;99.43;100430.91;4995819;28;20026;-57
2021/12/25 00:41:06;;;;;;;25.02;12.32;;;;;;;4.56;99.18;100421.56;4995793;28;20033;-58
2021/12/25 00:43:31;;;;;;;21.90;10.82;;;;;;;4.52;98.99;100410.34;4996503;28;20053;-58
2021/12/25 00:45:57;;;;;;;23.63;11.77;;;;;;;4.45;99.30;100410.63;4996454;28;20249;-57
2021/12/25 00:48:22;;;;;;;22.77;11.40;;;;;;;4.39;99.59;100421.88;4996321;28;20113;-57
2021/12/25 00:50:47;;;;;;;22.30;11.80;;;;;;;4.34;99.00;100419.97;4996946;28;20058;-57
2021/12/25 00:53:13;;;;;;;23.05;11.68;;;;;;;4.28;99.30;100424.63;4996274;28;20461;-58
2021/12/25 00:55:38;;;;;;;22.15;11.18;;;;;;;4.28;99.32;100432.00;4996248;28;20026;-57
2021/12/25 00:58:03;;;;;;;22.65;11.70;;;;;;;4.25;99.92;100443.53;4996141;28;20023;-58
2021/12/25 01:00:29;;;;;;;24.58;12.38;;;;;;;4.18;99.44;100441.06;4996025;28;20088;-57
2021/12/25 01:02:54;;;;;;;23.88;12.25;;;;;;;4.18;99.80;100444.59;4995515;28;20027;-57
2021/12/25 01:05:20;;;;;;;24.52;12.88;;;;;;;4.15;100.00;100439.69;4995853;28;20037;-57
2021/12/25 01:07:46;;;;;;;24.25;12.93;;;;;;;4.14;100.00;100446.25;4996025;28;20027;-58
2021/12/25 01:10:15;;;;;;;25.17;12.70;;;;;;;4.12;100.00;100442.13;4996294;28;20037;-58
2021/12/25 01:13:06;;;;;;;25.90;13.80;;;;;;;4.16;100.00;100444.03;4995953;28;20481;-58
2021/12/25 01:29:13;;;;;;;27.55;14.63;;;;;;;4.34;99.62;100439.16;4996568;28;20041;-57
2021/12/25 01:31:42;;;;;;;28.35;14.30;;;;;;;4.33;99.34;100443.78;4996062;28;20041;-57
2021/12/25 01:37:19;;;;;;;28.90;16.45;;;;;;;4.32;99.65;100431.19;4962623;28;20070;-57
2021/12/25 01:40:44;;;;;;;27.52;15.98;;;;;;;4.31;99.38;100431.47;4995253;28;20034;-57
2021/12/25 01:47:51;;;;;;;;;;;;;;;4.30;99.11;100438.84;4995888;28;20097;-58
2021/12/25 01:50:20;;;;;;;29.95;16.33;;;;;;;4.12;98.87;100425.69;4995005;28;19922;-58
2021/12/25 01:52:46;;;;;;;28.52;15.30;;;;;;;4.17;99.47;100433.94;4994869;28;20026;-57
2021/12/25 01:55:20;;;;;;;29.00;15.90;;;;;;;4.17;99.98;100426.53;4994931;28;20041;-57
2021/12/25 01:57:45;;;;;;;30.08;16.35;;;;;;;4.17;100.00;100433.94;4994558;28;20031;-57
2021/12/25 02:00:16;;;;;;;29.63;16.42;;;;;;;4.20;99.51;100433.38;4994811;28;20441;-57
2021/12/25 02:02:42;;;;;;;30.95;17.90;;;;;;;4.12;99.48;100442.97;4994828;28;20093;-58
2021/12/25 02:05:08;;;;;;;28.73;15.75;;;;;;;4.11;99.29;100438.56;4994981;28;20026;-58
2021/12/25 02:07:33;;;;;;;28.52;15.25;;;;;;;4.09;99.22;100429.81;4994680;28;20030;-58
2021/12/25 02:09:59;;;;;;;27.75;15.02;;;;;;;4.12;99.06;100433.91;4994517;28;20030;-58
2021/12/25 02:12:24;;;;;;;28.25;15.77;;;;;;;4.06;98.66;100428.44;4994913;28;20057;-58
2021/12/25 02:14:51;;;;;;;28.67;14.82;;;;;;;4.09;98.56;100429.00;4995128;28;20048;-58
2021/12/25 02:17:23;;;;;;;29.52;16.50;;;;;;;3.98;98.40;100441.84;4994954;28;20037;-58
2021/12/25 02:20:07;;;;;;;27.42;15.20;;;;;;;3.90;97.68;100444.03;4995043;28;20050;-58
2021/12/25 02:22:33;;;;;;;24.25;12.55;;;;;;;3.82;97.39;100449.22;4994838;28;20022;-58
2021/12/25 02:24:58;;;;;;;25.05;13.45;;;;;;;3.77;97.47;100440.97;4994849;28;20026;-58
2021/12/25 02:27:24;;;;;;;23.08;12.60;;;;;;;3.71;97.61;100451.09;4994722;28;20026;-58
2021/12/25 02:29:49;;;;;;;23.33;12.77;;;;;;;3.64;96.72;100450.53;4994955;28;20022;-59
2021/12/25 02:32:15;;;;;;;22.42;11.85;;;;;;;3.58;96.57;100449.69;4994128;28;20027;-58
2021/12/25 02:34:40;;;;;;;23.40;11.93;;;;;;;3.53;97.38;100449.69;4994407;28;20026;-60
2021/12/25 02:37:05;;;;;;;24.05;12.70;;;;;;;3.46;97.13;100454.56;4993949;28;20038;-58
2021/12/25 02:39:31;;;;;;;24.20;12.95;;;;;;;3.43;97.43;100451.31;4993950;28;20030;-58
2021/12/25 02:41:56;;;;;;;24.77;12.13;;;;;;;3.35;96.77;100446.34;4993877;28;20081;-56
2021/12/25 02:44:22;;;;;;;25.17;12.45;;;;;;;3.31;95.78;100449.88;4994498;28;20534;-55
2021/12/25 02:46:49;;;;;;;24.73;12.70;;;;;;;3.31;96.61;100447.97;4993932;28;20097;-57
2021/12/25 02:49:15;;;;;;;26.05;12.90;;;;;;;3.28;96.66;100454.78;4994190;28;20105;-56
2021/12/25 02:51:45;;;;;;;25.08;12.68;;;;;;;3.21;95.83;100446.00;4994652;28;20104;-55
2021/12/25 02:54:10;;;;;;;25.58;12.70;;;;;;;3.20;95.92;100459.94;4993279;28;20034;-57
2021/12/25 02:56:36;;;;;;;26.25;12.70;;;;;;;3.14;95.52;100471.94;4993001;28;20023;-58
2021/12/25 02:59:01;;;;;;;25.60;13.35;;;;;;;3.11;95.79;100462.38;4993546;28;20044;-59
2021/12/25 03:01:26;;;;;;;24.95;12.70;;;;;;;3.10;95.13;100458.00;4994420;28;20080;-59
2021/12/25 03:03:52;;;;;;;26.00;12.35;;;;;;;3.05;95.30;100463.41;4994042;28;20076;-57
2021/12/25 03:06:17;;;;;;;25.60;12.32;;;;;;;3.00;95.36;100463.41;4993935;28;20039;-59
2021/12/25 03:08:43;;;;;;;26.25;13.18;;;;;;;2.97;95.76;100470.22;4993353;28;20018;-57
2021/12/25 03:11:13;;;;;;;25.88;13.15;;;;;;;2.99;96.51;100462.56;4992630;28;20034;-58
2021/12/25 03:13:56;;;;;;;26.65;12.57;;;;;;;2.94;96.06;100474.28;4993647;28;20122;-57
2021/12/25 03:16:21;;;;;;;25.23;12.95;;;;;;;2.87;96.24;100468.22;4992704;28;20045;-57
2021/12/25 03:18:50;;;;;;;26.00;14.65;;;;;;;2.84;95.98;100470.69;4992957;28;20033;-57
2021/12/25 03:21:17;;;;;;;25.33;13.88;;;;;;;2.77;95.84;100477.19;4993435;28;20035;-57
2021/12/25 03:23:42;;;;;;;27.25;14.13;;;;;;;2.67;95.49;100473.56;4993455;28;20034;-57
2021/12/25 03:26:08;;;;;;;26.67;14.95;;;;;;;2.64;95.78;100474.91;4993380;28;20030;-57
2021/12/25 03:28:38;;;;;;;26.52;14.45;;;;;;;2.62;95.57;100468.88;4993528;28;20412;-58
2021/12/25 03:31:12;;;;;;;26.58;14.68;;;;;;;2.54;95.98;100467.47;4993023;28;20026;-57
2021/12/25 03:33:37;;;;;;;27.25;14.07;;;;;;;2.57;95.96;100480.59;4993596;28;20030;-58
2021/12/25 03:36:03;;;;;;;26.92;13.98;;;;;;;2.56;95.99;100472.66;4993581;28;20480;-58
2021/12/25 03:38:30;;;;;;;28.05;14.77;;;;;;;2.54;95.35;100478.41;4994089;28;20029;-58
2021/12/25 03:40:56;;;;;;;29.05;15.40;;;;;;;2.50;95.63;100485.47;4993182;28;20026;-59
2021/12/25 03:43:22;;;;;;;28.63;14.45;;;;;;;2.50;95.51;100488.19;4992843;28;20085;-58
2021/12/25 03:45:49;;;;;;;26.55;13.90;;;;;;;2.49;95.02;100484.66;4992377;28;20511;-57
2021/12/25 03:48:29;;;;;;;27.30;14.27;;;;;;;2.48;95.70;100495.81;4992860;28;20054;-58
2021/12/25 03:59:02;;;;;;;30.35;16.48;;;;;;;2.27;95.57;100503.81;4993623;28;20145;-59
2021/12/25 04:02:16;;;;;;;30.00;16.85;;;;;;;2.24;95.49;100506.25;4991542;28;20497;-59
2021/12/25 04:04:21;;;;;;;28.90;16.15;;;;;;;2.22;94.70;100500.25;4986751;28;20046;-59
2021/12/25 04:06:54;;;;;;;29.70;17.15;;;;;;;2.08;94.13;100499.84;4996906;28;20061;-58
2021/12/25 04:09:30;;;;;;;29.83;17.98;;;;;;;2.06;93.32;100510.19;4997132;28;20031;-56
2021/12/25 04:12:00;;;;;;;26.83;14.85;;;;;;;2.08;94.09;100511.56;4997042;28;20474;-56
2021/12/25 04:14:25;;;;;;;28.40;15.65;;;;;;;2.05;94.34;100514.81;4996684;28;20026;-58
2021/12/25 04:16:51;;;;;;;29.05;15.18;;;;;;;2.03;93.44;100525.97;4997167;28;20449;-57
2021/12/25 04:19:18;;;;;;;28.65;15.95;;;;;;;1.97;93.29;100520.72;4997118;28;20437;-56
2021/12/25 04:22:02;;;;;;;30.27;16.80;;;;;;;1.93;93.42;100523.13;4997276;28;20041;-58
2021/12/25 04:24:31;;;;;;;27.83;15.18;;;;;;;1.86;93.32;100530.72;4996881;28;20037;-57
2021/12/25 04:26:57;;;;;;;28.38;17.02;;;;;;;1.84;nan;100530.94;4996580;28;20041;-56
2021/12/25 05:04:34;;;;;;;29.55;15.82;;;;;;;1.38;94.29;100558.47;4935614;29;19958;-56
2021/12/25 05:07:00;;;;;;;29.10;15.75;;;;;;;1.38;95.59;100560.38;4986659;28;20093;-56
2021/12/25 05:09:25;;;;;;;29.90;17.25;;;;;;;1.37;95.90;100565.00;4995612;28;20053;-56
2021/12/25 05:11:51;;;;;;;30.60;16.65;;;;;;;1.33;95.39;100558.38;4995708;28;20042;-55
2021/12/25 05:14:16;;;;;;;30.95;17.60;;;;;;;1.27;94.96;100567.59;4995531;28;20482;-56
2021/12/25 05:16:41;;;;;;;29.88;16.65;;;;;;;1.22;95.01;100565.59;4994587;28;20113;-55
2021/12/25 05:19:07;;;;;;;30.23;16.02;;;;;;;1.17;95.05;100560.09;4995102;28;20026;-56
2021/12/25 05:21:32;;;;;;;28.33;16.38;;;;;;;1.12;94.99;100565.47;4995563;28;20045;-55
2021/12/25 05:23:59;;;;;;;30.27;16.75;;;;;;;1.12;95.75;100557.28;4995084;28;20077;-55
2021/12/25 05:26:24;;;;;;;29.92;16.00;;;;;;;1.11;94.70;100563.00;4995067;28;20026;-54
2021/12/25 05:28:58;;;;;;;29.42;16.80;;;;;;;1.09;95.43;100574.13;4994839;28;20192;-55
2021/12/25 05:31:24;;;;;;;29.58;16.40;;;;;;;1.00;95.01;100576.47;4995440;28;20039;-55
2021/12/25 05:33:49;;;;;;;29.27;16.08;;;;;;;0.98;95.70;100575.88;4994297;28;20118;-57
2021/12/25 05:36:15;;;;;;;28.15;15.70;;;;;;;0.92;95.70;100583.13;4995158;28;20117;-58
2021/12/25 05:38:40;;;;;;;26.58;14.02;;;;;;;0.89;95.18;100585.53;4994745;28;20041;-54
2021/12/25 05:41:06;;;;;;;28.73;16.25;;;;;;;0.72;94.48;100585.53;4995259;28;20034;-56
2021/12/25 05:43:31;;;;;;;27.67;15.05;;;;;;;0.75;94.70;100594.06;4994730;28;20030;-57
2021/12/25 05:45:57;;;;;;;27.65;16.33;;;;;;;0.65;94.76;100595.75;4995130;28;20053;-55
2021/12/25 05:48:22;;;;;;;26.50;13.75;;;;;;;0.65;95.36;100588.44;4994397;28;20469;-55
2021/12/25 05:50:48;;;;;;;26.33;14.77;;;;;;;0.60;94.81;100591.03;4994592;28;20058;-55
2021/12/25 05:53:13;;;;;;;28.75;16.17;;;;;;;0.57;95.17;100605.97;4994733;28;20031;-55
2021/12/25 05:55:39;;;;;;;27.20;15.05;;;;;;;0.53;95.30;100593.09;4994823;28;20045;-54
2021/12/25 05:58:07;;;;;;;27.40;14.82;;;;;;;0.50;95.70;100599.03;4994380;28;20058;-54
2021/12/25 06:00:33;;;;;;;27.30;13.93;;;;;;;0.51;95.68;100600.69;4994528;28;20085;-57
2021/12/25 06:02:59;;;;;;;26.67;15.48;;;;;;;0.49;96.26;100603.66;4994085;28;20030;-55
2021/12/25 06:05:25;;;;;;;28.33;14.75;;;;;;;0.46;95.86;100604.97;4994765;28;20028;-55
2021/12/25 06:07:51;;;;;;;27.67;14.43;;;;;;;0.47;95.89;100603.88;4993977;28;20121;-54
2021/12/25 06:10:16;;;;;;;26.92;14.45;;;;;;;0.43;96.76;100618.22;4994192;28;20058;-54
2021/12/25 06:12:43;;;;;;;26.65;14.38;;;;;;;0.50;96.30;100627.09;4994681;28;20041;-55
2021/12/25 06:15:12;;;;;;;28.33;14.80;;;;;;;0.47;97.00;100609.34;4994591;28;20497;-57
2021/12/25 06:17:38;;;;;;;28.95;15.63;;;;;;;0.50;96.90;100618.09;4993929;28;20030;-54
2021/12/25 06:20:04;;;;;;;29.55;15.93;;;;;;;0.53;96.51;100628.50;4992894;28;20401;-57
2021/12/25 06:22:30;;;;;;;28.35;15.98;;;;;;;0.55;96.94;100621.72;4994533;28;20034;-57
2021/12/25 06:24:55;;;;;;;29.75;16.17;;;;;;;0.54;96.80;100630.16;4994582;28;20042;-57
2021/12/25 06:27:21;;;;;;;30.40;15.65;;;;;;;0.54;97.22;100625.50;4993359;28;20026;-55
2021/12/25 06:29:48;;;;;;;29.38;17.30;;;;;;;0.44;96.46;100628.06;4994414;28;20070;-57
2021/12/25 06:32:13;;;;;;;29.38;16.63;;;;;;;0.41;96.49;100618.47;4993734;28;20088;-58
2021/12/25 06:34:39;;;;;;;29.85;16.67;;;;;;;0.38;96.45;100626.31;4993905;28;20022;-58
2021/12/25 06:37:05;;;;;;;29.40;15.27;;;;;;;0.33;97.15;100635.22;4993192;28;20046;-56
2021/12/25 06:39:31;;;;;;;28.70;15.02;;;;;;;0.31;96.82;100634.63;4994335;28;20106;-57
2021/12/25 06:41:57;;;;;;;28.25;15.05;;;;;;;0.23;96.85;100633.13;4994019;28;20029;-57
2021/12/25 06:44:24;;;;;;;29.00;14.95;;;;;;;0.15;96.90;100637.03;4993860;28;20038;-55
2021/12/25 06:46:50;;;;;;;27.35;14.60;;;;;;;0.18;96.96;100638.44;4993960;28;20062;-57
2021/12/25 06:49:16;;;;;;;26.73;14.07;;;;;;;0.12;96.58;100632.09;4993992;28;20030;-58
2021/12/25 06:51:41;;;;;;;29.23;15.38;;;;;;;0.12;96.69;100642.97;4993803;28;20030;-55
2021/12/25 06:54:06;;;;;;;30.85;15.43;;;;;;;0.19;97.22;100642.00;4992341;28;20034;-58
2021/12/25 06:56:32;;;;;;;28.40;15.10;;;;;;;0.14;96.95;100642.75;4993754;28;20477;-57
2021/12/25 06:58:58;;;;;;;25.70;13.23;;;;;;;0.13;96.64;100650.06;4994168;28;20109;-58
2021/12/25 07:01:23;;;;;;;25.58;13.63;;;;;;;0.09;96.30;100646.19;4994274;28;20109;-57
2021/12/25 07:03:48;;;;;;;26.70;13.60;;;;;;;0.14;96.82;100659.06;4991824;28;20113;-56
2021/12/25 07:06:13;;;;;;;24.40;13.30;;;;;;;0.14;96.27;100653.63;4993805;28;20030;-55
2021/12/25 07:08:39;;;;;;;26.65;14.40;;;;;;;0.10;95.26;100657.88;4993157;28;20089;-58
2021/12/25 07:11:04;;;;;;;26.00;12.35;;;;;;;0.05;95.58;100655.88;4993654;28;20042;-56
2021/12/25 07:13:30;;;;;;;26.15;13.50;;;;;;;0.00;95.23;100661.22;4993405;28;20030;-57
2021/12/25 07:15:55;;;;;;;24.63;13.70;;;;;;;0.03;95.30;100673.50;4993463;28;20453;-56
2021/12/25 07:18:20;;;;;;;21.95;10.50;;;;;;;-0.04;95.38;100669.00;4993087;28;20034;-55
2021/12/25 07:20:48;;;;;;;22.25;11.82;;;;;;;-0.07;94.97;100676.81;4993045;28;20030;-54
2021/12/25 07:23:17;;;;;;;21.27;11.30;;;;;;;-0.24;94.34;100679.47;4993377;28;20026;-56
2021/12/25 07:25:43;;;;;;;20.20;10.05;;;;;;;-0.24;94.56;100679.47;4992587;28;20026;-55
2021/12/25 07:28:08;;;;;;;20.73;10.73;;;;;;;-0.26;94.08;100689.75;4992931;28;20038;-55
2021/12/25 07:30:34;;;;;;;20.60;10.38;;;;;;;-0.28;93.88;100689.97;4993203;28;20057;-57
2021/12/25 07:32:59;;;;;;;20.05;10.18;;;;;;;-0.28;94.14;100691.88;4992895;28;20018;-55
2021/12/25 07:35:25;;;;;;;19.83;9.93;;;;;;;-0.31;94.38;100695.91;4993776;28;20031;-57
2021/12/25 07:37:51;;;;;;;18.85;9.25;;;;;;;-0.41;93.08;100698.38;4993979;28;20501;-57
2021/12/25 07:40:17;;;;;;;19.60;9.93;;;;;;;-0.42;93.37;100702.16;4993947;28;20022;-56
2021/12/25 07:42:42;;;;;;;20.23;9.45;;;;;;;-0.45;93.16;100702.63;4993768;28;20041;-55
2021/12/25 07:45:08;;;;;;;18.63;9.15;;;;;;;-0.44;93.69;100704.28;4993475;28;20070;-58
2021/12/25 07:47:36;;;;;;;21.48;9.95;;;;;;;-0.46;92.77;100709.97;4994108;28;20022;-57
2021/12/25 07:50:03;;;;;;;19.63;9.80;;;;;;;-0.58;92.82;100698.25;4993566;28;20441;-57
2021/12/25 07:52:29;;;;;;;19.30;9.93;;;;;;;-0.58;92.86;100714.56;4992156;28;20027;-57
2021/12/25 07:54:54;;;;;;;22.17;10.95;;;;;;;-0.67;92.68;100706.75;4993230;28;20037;-57
2021/12/25 07:57:20;;;;;;;20.45;10.23;;;;;;;-0.65;93.25;100712.78;4993723;28;20113;-58
2021/12/25 07:59:45;;;;;;;22.00;10.43;;;;;;;-0.64;93.17;100702.72;4993146;28;20474;-57
2021/12/25 08:02:11;;;;;;;21.80;11.43;;;;;;;-0.70;92.55;100714.53;4992669;28;20022;-57
2021/12/25 08:04:37;;;;;;;21.27;9.60;;;;;;;-0.74;92.66;100711.47;4993468;28;20077;-58
2021/12/25 08:07:02;;;;;;;18.75;9.63;;;;;;;-0.81;92.22;100714.28;4993594;28;20076;-58
2021/12/25 08:09:29;;;;;;;22.63;10.95;;;;;;;-0.83;92.64;100718.31;4993417;28;20018;-57
2021/12/25 08:11:56;;;;;;;22.27;10.90;;;;;;;-0.84;92.30;100725.63;4993857;28;20022;-58
2021/12/25 08:14:25;;;;;;;19.17;9.80;;;;;;;-0.87;92.53;100731.53;4992788;28;20476;-57
2021/12/25 08:16:50;;;;;;;21.30;10.27;;;;;;;-0.84;92.70;100735.66;4993005;28;20477;-59
2021/12/25 08:19:15;;;;;;;20.15;10.32;;;;;;;-0.86;91.91;100730.47;4992904;28;20022;-57
2021/12/25 08:21:40;;;;;;;20.17;9.73;;;;;;;-0.93;91.63;100734.34;4993254;28;20030;-58
2021/12/25 08:24:06;;;;;;;22.33;10.48;;;;;;;-0.93;91.54;100746.03;4993362;28;20374;-58
2021/12/25 08:26:31;;;;;;;22.77;11.07;;;;;;;-0.98;91.27;100744.00;4993421;28;20050;-58
2021/12/25 08:28:56;;;;;;;20.15;10.02;;;;;;;-0.92;91.56;100739.53;4993331;28;20022;-58
2021/12/25 08:31:21;;;;;;;20.48;9.98;;;;;;;-0.91;91.05;100738.47;4993143;28;20045;-59
2021/12/25 08:33:47;;;;;;;20.33;10.02;;;;;;;-0.85;91.47;100737.53;4992661;28;20088;-58
2021/12/25 08:36:12;;;;;;;20.40;9.85;;;;;;;-0.82;92.42;100753.38;4991957;28;20478;-57
2021/12/25 08:38:37;;;;;;;20.65;9.70;;;;;;;-0.78;92.28;100759.16;4991990;28;20038;-58
2021/12/25 08:41:03;;;;;;;20.50;10.57;;;;;;;-0.77;90.67;100757.31;4992624;28;20560;-58
2021/12/25 08:43:36;;;;;;;21.40;10.05;;;;;;;-0.83;90.74;100757.16;4992714;28;20109;-58
2021/12/25 08:46:12;;;;;;;21.30;9.65;;;;;;;-0.86;90.58;100759.50;4991893;28;20154;-58
2021/12/25 08:48:37;;;;;;;20.05;10.30;;;;;;;-0.96;89.74;100769.03;4976414;28;20038;-56
2021/12/25 08:51:03;;;;;;;21.48;10.57;;;;;;;-0.97;90.42;100774.72;4972924;28;20051;-57
2021/12/25 08:53:28;;;;;;;20.70;10.05;;;;;;;-1.02;90.38;100772.69;4975105;28;20034;-55
2021/12/25 08:55:56;;;;;;;20.30;10.13;;;;;;;-1.04;89.76;100769.38;4975219;28;20030;-55
2021/12/25 08:58:22;;;;;;;21.60;10.52;;;;;;;-1.04;90.86;100768.56;4975014;28;20161;-55
2021/12/25 09:00:50;;;;;;;19.67;9.60;;;;;;;-1.03;90.69;100771.03;4974787;28;20129;-57
2021/12/25 09:03:16;;;;;;;21.40;10.43;;;;;;;-1.00;90.50;100786.88;4975129;28;20034;-55
2021/12/25 09:05:41;;;;;;;20.30;10.25;;;;;;;-0.98;91.47;100783.91;4973121;28;20039;-55
2021/12/25 09:08:06;;;;;;;21.40;10.25;;;;;;;-0.96;90.59;100787.25;4974626;28;20615;-55
2021/12/25 09:10:34;;;;;;;21.38;9.93;;;;;;;-1.01;90.10;100785.22;4974859;28;20148;-56
2021/12/25 09:13:00;;;;;;;21.80;9.65;;;;;;;-1.02;89.90;100788.13;4974750;28;20042;-55
2021/12/25 09:15:25;;;;;;;20.67;10.25;;;;;;;-1.07;89.33;100793.44;4974786;28;20030;-56
2021/12/25 09:17:51;;;;;;;20.63;10.15;;;;;;;-1.05;89.66;100803.00;4974716;28;20057;-55
2021/12/25 09:20:19;;;;;;;20.83;9.45;;;;;;;-1.06;89.78;100798.63;4974665;28;20053;-56
2021/12/25 09:22:44;;;;;;;20.08;9.70;;;;;;;-1.06;90.56;100795.09;4974524;28;20533;-61
2021/12/25 09:25:10;;;;;;;20.95;9.77;;;;;;;-1.06;89.50;100800.53;4974248;28;20109;-59
2021/12/25 09:27:35;;;;;;;20.23;9.32;;;;;;;-1.07;89.58;100790.72;4973746;28;20038;-52
2021/12/25 09:30:01;;;;;;;20.38;9.75;;;;;;;-1.12;89.07;100802.28;4973924;28;20517;-57
2021/12/25 09:32:27;;;;;;;20.13;9.77;;;;;;;-1.20;88.64;100795.28;4974199;28;20027;-57
2021/12/25 09:34:52;;;;;;;20.13;9.95;;;;;;;-1.20;89.93;100797.16;4974239;28;20030;-54
2021/12/25 09:37:18;;;;;;;21.02;10.50;;;;;;;-1.22;88.83;100813.66;4974186;28;20113;-55
2021/12/25 09:39:44;;;;;;;21.02;9.85;;;;;;;-1.18;89.07;100793.16;4974205;28;20508;-56
2021/12/25 09:42:10;;;;;;;19.63;9.52;;;;;;;-1.23;89.32;100794.91;4973947;28;20031;-56
2021/12/25 09:44:35;;;;;;;20.73;10.02;;;;;;;-1.21;89.42;100803.66;4974284;28;20030;-56
2021/12/25 09:47:01;;;;;;;20.45;10.07;;;;;;;-1.21;89.45;100790.91;4973982;28;20027;-55
2021/12/25 09:49:26;;;;;;;21.15;10.40;;;;;;;-1.27;88.46;100795.34;4974132;28;20141;-55
2021/12/25 09:51:51;;;;;;;21.95;10.23;;;;;;;-1.24;88.74;100809.53;4974091;28;20053;-58
2021/12/25 09:54:18;;;;;;;21.17;10.45;;;;;;;-1.24;89.43;100799.53;4973550;28;20462;-55
2021/12/25 09:56:47;;;;;;;21.08;9.38;;;;;;;-1.24;88.57;100798.66;4973925;28;20504;-56
2021/12/25 09:59:12;;;;;;;22.17;10.02;;;;;;;-1.26;89.27;100785.34;4973471;28;20038;-55
2021/12/25 10:01:53;;;;;;;19.83;9.27;;;;;;;-1.27;88.96;100792.63;4972721;28;20217;-55
2021/12/25 10:04:42;;;;;;;21.33;9.82;;;;;;;-1.30;88.55;100798.53;4973240;28;20541;-55
2021/12/25 10:07:20;;;;;;;20.58;9.05;;;;;;;-1.37;88.23;100799.66;4972156;28;20553;-55
2021/12/25 10:10:13;;;;;;;20.25;8.98;;;;;;;-1.36;88.85;100799.44;4973635;28;20387;-56
2021/12/25 10:12:43;;;;;;;21.33;9.13;;;;;;;-1.34;88.74;100805.47;4973649;28;20470;-55
2021/12/25 10:15:13;;;;;;;19.85;9.15;;;;;;;-1.34;87.59;100807.38;4973607;28;20019;-55
2021/12/25 10:17:53;;;;;;;20.65;9.48;;;;;;;-1.22;88.01;100818.28;4973382;28;20030;-55
2021/12/25 10:20:31;;;;;;;19.83;8.93;;;;;;;-1.10;88.25;100830.84;4973233;28;20045;-56
2021/12/25 10:23:11;;;;;;;19.63;9.40;;;;;;;-1.13;86.81;100816.91;4973544;28;20038;-56
2021/12/25 10:25:46;;;;;;;18.27;7.95;;;;;;;-1.14;86.98;100829.66;4973206;28;20117;-56
2021/12/25 10:28:14;;;;;;;19.15;8.50;;;;;;;-1.14;87.69;100828.81;4973291;28;20039;-56
2021/12/25 10:30:47;;;;;;;19.38;8.20;;;;;;;-1.11;87.13;100825.66;4973324;28;20026;-56
2021/12/25 10:33:28;;;;;;;19.13;8.20;;;;;;;-1.12;87.42;100821.28;4973270;28;20061;-56
2021/12/25 10:35:55;;;;;;;19.63;8.70;;;;;;;-1.10;86.67;100822.72;4973416;28;20107;-56
2021/12/25 10:38:22;;;;;;;17.15;8.20;;;;;;;-1.06;86.34;100839.38;4973245;28;20545;-56
2021/12/25 10:40:47;;;;;;;18.80;8.20;;;;;;;-0.97;87.28;100832.56;4971617;28;20059;-57
2021/12/25 10:43:21;;;;;;;19.50;8.45;;;;;;;-0.87;87.55;100828.47;4973104;28;20112;-56
2021/12/25 10:46:00;;;;;;;;;;;;;;;-0.78;85.95;100824.38;4973499;28;20045;-57
2021/12/25 10:48:28;;;;;;;17.77;7.50;;;;;;;-1.04;85.03;100807.38;4973032;28;20373;-57
2021/12/25 10:50:53;;;;;;;15.63;6.93;;;;;;;-0.92;84.75;100829.16;4973156;28;20062;-55
2021/12/25 10:53:30;;;;;;;17.30;7.10;;;;;;;-0.93;85.80;100818.53;4972935;28;20406;-55
2021/12/25 10:56:09;;;;;;;18.33;7.70;;;;;;;-0.90;86.20;100820.81;4972883;28;20061;-56
2021/12/25 10:58:35;;;;;;;18.63;8.35;;;;;;;-0.86;86.01;100819.25;4972837;28;20027;-57
2021/12/25 11:01:01;;;;;;;16.05;7.13;;;;;;;-0.82;85.30;100826.72;4972734;28;20093;-57
2021/12/25 11:03:35;;;;;;;16.30;7.13;;;;;;;-0.81;84.89;100825.66;4972489;28;20070;-57
2021/12/25 11:06:26;;;;;;;16.02;6.80;;;;;;;-0.74;85.21;100816.56;4971074;28;20046;-56
2021/12/25 11:08:51;;;;;;;15.77;6.90;;;;;;;-0.85;84.10;100818.22;4970387;28;20121;-56
2021/12/25 11:11:19;;;;;;;15.10;6.50;;;;;;;-0.84;84.69;100815.25;4972239;28;20110;-55
2021/12/25 11:13:53;;;;;;;16.05;6.45;;;;;;;-0.80;84.83;100805.59;4969893;28;20978;-56
2021/12/25 11:16:31;;;;;;;12.93;6.45;;;;;;;-0.82;84.11;100818.56;4972013;28;20398;-56
2021/12/25 11:19:28;;;;;;;15.93;6.57;;;;;;;-0.85;84.14;100796.47;4972577;28;20030;-56
2021/12/25 11:21:59;;;;;;;16.17;6.45;;;;;;;-0.73;83.66;100804.66;4972170;28;20047;-56
2021/12/25 11:24:37;;;;;;;14.43;6.00;;;;;;;-0.68;83.33;100802.91;4972339;28;20050;-58
2021/12/25 11:27:06;;;;;;;14.77;6.00;;;;;;;-0.69;83.22;100808.59;4972793;28;20494;-56
2021/12/25 11:29:34;;;;;;;11.43;5.95;;;;;;;-0.73;82.71;100820.97;4972340;28;20030;-55
2021/12/25 11:32:01;;;;;;;16.17;6.28;;;;;;;-0.79;83.21;100809.97;4972774;28;20037;-56
2021/12/25 11:34:27;;;;;;;14.27;6.30;;;;;;;-0.63;82.93;100821.22;4972208;28;20035;-55
2021/12/25 11:36:55;;;;;;;15.45;6.25;;;;;;;-0.61;82.41;100812.88;4986994;28;20030;-56
2021/12/25 11:39:23;;;;;;;12.85;6.10;;;;;;;-0.64;81.97;100822.28;4991166;28;20030;-55
2021/12/25 11:41:53;;;;;;;13.40;6.25;;;;;;;-0.63;82.05;100816.63;4988932;28;20056;-55
2021/12/25 11:44:46;;;;;;;13.30;6.00;;;;;;;-0.66;81.14;100817.09;4991215;28;20022;-55
2021/12/25 11:47:38;;;;;;;13.20;6.17;;;;;;;-0.60;81.91;100823.50;4989564;28;20018;-57
2021/12/25 11:50:12;;;;;;;14.35;6.25;;;;;;;-0.69;80.66;100817.53;4990602;28;20060;-57
2021/12/25 11:52:54;;;;;;;11.35;5.72;;;;;;;-0.58;81.75;100818.66;4991238;28;20022;-58
2021/12/25 11:58:17;;;;;;;13.30;6.15;;;;;;;-0.64;80.85;100820.41;4990518;28;20043;-58
2021/12/25 12:00:46;;;;;;;13.80;5.93;;;;;;;-0.74;80.11;100803.00;4991549;28;20038;-55
2021/12/25 12:03:35;;;;;;;12.43;6.10;;;;;;;-0.73;81.27;100800.06;4991403;28;20030;-57
2021/12/25 12:06:00;;;;;;;12.40;6.15;;;;;;;-0.70;80.78;100804.19;4988970;28;20038;-57
2021/12/25 12:08:25;;;;;;;11.45;5.97;;;;;;;-0.73;80.21;100802.78;4990681;28;20022;-56
2021/12/25 12:10:57;;;;;;;14.05;6.03;;;;;;;-0.80;79.69;100799.31;4990172;28;20053;-56
2021/12/25 12:13:31;;;;;;;12.27;5.93;;;;;;;-0.72;80.59;100799.00;4991357;28;20117;-57
2021/12/25 12:16:00;;;;;;;13.13;6.05;;;;;;;-0.69;81.69;100786.84;4991424;28;20040;-55
2021/12/25 12:18:31;;;;;;;12.68;5.95;;;;;;;-0.61;80.16;100800.09;4991463;28;20058;-56
2021/12/25 12:21:09;;;;;;;12.70;6.13;;;;;;;-0.60;81.34;100801.75;4991401;28;20042;-56
2021/12/25 12:26:47;;;;;;;12.70;5.45;;;;;;;-0.43;80.74;100804.63;4992664;28;20030;-56
2021/12/25 12:29:14;;;;;;;12.73;6.10;;;;;;;-0.46;78.96;100799.66;4995064;28;20421;-59
2021/12/25 12:31:46;;;;;;;12.10;5.80;;;;;;;-0.44;78.87;100807.56;4994739;28;20041;-56
2021/12/25 12:34:30;;;;;;;11.13;5.80;;;;;;;-0.42;78.96;100802.72;4994808;28;20038;-57
2021/12/25 12:37:13;;;;;;;11.77;5.93;;;;;;;-0.37;79.56;100792.81;4994332;28;20069;-56
2021/12/25 12:40:04;;;;;;;14.13;6.47;;;;;;;-0.35;77.79;100795.28;4994392;28;20068;-56